Time;durP1;ratioP1;P1;durP2;ratioP2;P2;SDS_P1;SDS_P2;PMS_P1;PMS_P2;Temp;Humidity;BMP_temperature;BMP_pressure;BME280_temperature;BME280_humidity;BME280_pressure;Samples;Min_cycle;Max_cycle;Signal;HPM_P1;HPM_P2
2024/02/14 00:00:30;;;;;;;3.00;2.72;;;;;;;10.48;79.10;101304.13;5110918;28;20035;-78
2024/02/14 00:02:56;;;;;;;0.10;0.10;;;;;;;10.45;79.41;101310.34;5110350;28;20084;-78
2024/02/14 00:05:23;;;;;;;0.20;0.20;;;;;;;10.49;79.35;101306.78;5110822;28;20052;-77
2024/02/14 00:07:49;;;;;;;0.35;0.28;;;;;;;10.36;79.68;101295.44;5110269;28;20051;-78
2024/02/14 00:10:15;;;;;;;0.20;0.20;;;;;;;10.46;79.70;101303.28;5099868;28;20449;-78
2024/02/14 00:12:41;;;;;;;0.75;0.75;;;;;;;10.54;79.50;101298.75;5107711;28;20032;-78
2024/02/14 00:15:09;;;;;;;0.52;0.52;;;;;;;10.54;79.30;101297.91;5100261;28;20020;-78
2024/02/14 00:17:35;;;;;;;0.80;0.73;;;;;;;10.52;79.36;101305.88;5082123;28;20494;-78
2024/02/14 00:20:03;;;;;;;0.20;0.20;;;;;;;10.58;79.93;101294.28;5091099;28;20028;-79
2024/02/14 00:22:30;;;;;;;0.80;0.80;;;;;;;10.71;79.31;101271.19;5090691;28;20165;-79
2024/02/14 00:24:56;;;;;;;1.08;1.02;;;;;;;10.70;79.51;101290.63;5087030;28;20024;-79
2024/02/14 00:27:22;;;;;;;0.32;0.30;;;;;;;10.64;79.41;101284.53;5089163;28;20028;-79
2024/02/14 00:29:48;;;;;;;0.20;0.20;;;;;;;10.73;79.14;101311.78;5083725;28;20318;-79
2024/02/14 00:32:15;;;;;;;0.40;0.40;;;;;;;10.82;79.14;101293.13;5087381;28;20507;-79
2024/02/14 00:34:41;;;;;;;1.00;1.00;;;;;;;10.78;78.79;101264.88;5081069;28;20032;-78
2024/02/14 00:37:08;;;;;;;0.10;0.10;;;;;;;10.79;78.74;101282.53;5084067;28;20039;-78
2024/02/14 00:39:34;;;;;;;0.75;0.75;;;;;;;10.72;79.69;101286.19;5081745;28;20038;-79
2024/02/14 00:42:00;;;;;;;0.10;0.10;;;;;;;10.71;79.40;101276.50;5085092;28;20130;-79
2024/02/14 00:44:26;;;;;;;0.20;0.20;;;;;;;10.81;79.14;101275.44;5083485;28;20016;-79
2024/02/14 00:47:01;;;;;;;0.10;0.10;;;;;;;10.67;80.31;101281.81;5089253;28;20122;-79
2024/02/14 00:49:27;;;;;;;0.17;0.17;;;;;;;10.77;79.57;101289.66;5081015;28;20063;-79
2024/02/14 00:51:54;;;;;;;0.17;0.17;;;;;;;10.76;79.70;101279.94;5081264;28;20488;-78
2024/02/14 00:54:20;;;;;;;0.40;0.40;;;;;;;10.88;79.25;101286.84;5080703;28;20039;-79
2024/02/14 00:56:46;;;;;;;0.30;0.30;;;;;;;10.71;80.33;101290.59;5083236;28;20504;-79
2024/02/14 00:59:13;;;;;;;0.30;0.30;;;;;;;10.84;79.88;101280.69;5086988;28;20092;-79
2024/02/14 01:01:39;;;;;;;0.30;0.30;;;;;;;10.78;80.24;101294.03;5085968;28;20704;-80
2024/02/14 01:04:07;;;;;;;0.63;0.63;;;;;;;10.83;79.94;101292.22;5089629;28;20028;-79
2024/02/14 01:06:33;;;;;;;0.30;0.30;;;;;;;10.93;80.01;101295.59;5096547;28;20032;-79
2024/02/14 01:08:59;;;;;;;1.02;0.98;;;;;;;10.98;79.18;101302.59;5086455;28;20024;-80
2024/02/14 01:11:25;;;;;;;0.10;0.10;;;;;;;10.76;80.42;101287.91;5093538;28;20039;-78
2024/02/14 01:13:52;;;;;;;0.28;0.28;;;;;;;10.86;80.47;101294.81;5091396;28;20052;-79
2024/02/14 01:16:18;;;;;;;0.20;0.20;;;;;;;10.96;80.31;101299.09;5083533;28;20079;-78
2024/02/14 01:18:44;;;;;;;0.10;0.10;;;;;;;10.92;80.13;101302.69;5081882;28;20137;-78
2024/02/14 01:21:11;;;;;;;0.13;0.13;;;;;;;11.00;80.46;101305.22;5083301;28;20535;-79
2024/02/14 01:23:37;;;;;;;0.65;0.65;;;;;;;11.07;80.09;101300.72;5084721;28;20016;-79
2024/02/14 01:26:03;;;;;;;0.82;0.82;;;;;;;11.00;80.33;101292.84;5075131;28;20036;-79
2024/02/14 01:28:29;;;;;;;0.45;0.45;;;;;;;11.04;80.22;101304.28;5083640;28;20078;-79
2024/02/14 01:30:56;;;;;;;0.20;0.20;;;;;;;11.06;80.08;101298.97;5084391;28;20077;-80
2024/02/14 01:33:23;;;;;;;0.28;0.28;;;;;;;11.14;80.09;101302.34;5084820;28;20020;-79
2024/02/14 01:35:49;;;;;;;0.10;0.10;;;;;;;11.09;80.53;101302.44;5091497;28;20054;-80
2024/02/14 01:38:15;;;;;;;0.10;0.10;;;;;;;11.09;80.62;101306.84;5089372;28;20449;-79
2024/02/14 01:40:44;;;;;;;0.90;0.90;;;;;;;10.96;81.35;101301.72;5085527;28;20048;-80
2024/02/14 01:43:11;;;;;;;0.30;0.30;;;;;;;11.11;80.81;101323.63;5088366;28;20035;-80
2024/02/14 01:45:38;;;;;;;0.30;0.30;;;;;;;11.08;80.22;101308.66;5086384;28;20024;-80
2024/02/14 01:48:06;;;;;;;0.10;0.10;;;;;;;11.05;81.03;101299.84;5089998;28;20025;-79
2024/02/14 01:50:32;;;;;;;0.25;0.25;;;;;;;11.13;80.35;101308.59;5084167;28;20505;-79
2024/02/14 01:53:00;;;;;;;0.10;0.10;;;;;;;11.18;80.01;101306.75;5101535;28;20031;-79
2024/02/14 01:55:28;;;;;;;0.20;0.20;;;;;;;11.20;80.07;101299.63;5090940;28;20024;-79
2024/02/14 01:57:55;;;;;;;0.13;0.13;;;;;;;11.18;79.97;101306.75;5095786;28;20024;-79
2024/02/14 02:00:21;;;;;;;0.95;0.95;;;;;;;11.09;80.12;101304.22;5101144;28;20047;-79
2024/02/14 02:02:47;;;;;;;0.30;0.30;;;;;;;11.22;79.76;101308.44;5092177;28;20021;-79
2024/02/14 02:05:15;;;;;;;0.20;0.20;;;;;;;11.12;80.40;101317.44;5091442;28;20499;-79
2024/02/14 02:07:43;;;;;;;0.70;0.70;;;;;;;11.15;79.69;101304.13;5093721;28;20630;-79
2024/02/14 02:10:11;;;;;;;0.13;0.13;;;;;;;11.22;80.19;101329.66;5093827;28;20024;-80
2024/02/14 02:12:38;;;;;;;0.10;0.10;;;;;;;11.12;80.36;101320.09;5084499;28;20040;-80
2024/02/14 02:15:06;;;;;;;4.07;0.95;;;;;;;11.24;80.44;101311.94;5091378;28;20097;-79
2024/02/14 02:17:34;;;;;;;0.20;0.20;;;;;;;11.17;80.18;101311.16;5088201;28;20037;-80
2024/02/14 02:20:01;;;;;;;0.10;0.10;;;;;;;11.14;80.16;101321.81;5089266;28;20081;-80
2024/02/14 02:22:29;;;;;;;0.30;0.30;;;;;;;11.16;80.78;101319.13;5091483;28;20028;-80
2024/02/14 02:24:55;;;;;;;0.73;0.73;;;;;;;11.23;80.33;101323.47;5087121;28;20402;-80
2024/02/14 02:27:21;;;;;;;1.85;0.45;;;;;;;11.19;80.42;101329.72;5083634;28;20070;-80
2024/02/14 02:29:48;;;;;;;0.20;0.20;;;;;;;11.15;81.04;101323.56;5089390;28;20075;-80
2024/02/14 02:32:16;;;;;;;0.10;0.10;;;;;;;11.23;80.66;101319.94;5090050;28;20482;-80
2024/02/14 02:34:42;;;;;;;0.35;0.32;;;;;;;11.31;80.17;101318.03;5090615;28;20036;-80
2024/02/14 02:37:09;;;;;;;0.20;0.20;;;;;;;11.25;80.57;101324.31;5086726;28;20062;-80
2024/02/14 02:39:36;;;;;;;0.15;0.15;;;;;;;11.18;81.12;101335.91;5084229;28;20074;-80
2024/02/14 02:42:03;;;;;;;0.20;0.20;;;;;;;11.28;80.40;101334.00;5084236;28;20032;-80
2024/02/14 02:44:29;;;;;;;0.30;0.30;;;;;;;11.26;80.60;101326.03;5078094;28;20035;-80
2024/02/14 02:46:55;;;;;;;0.35;0.35;;;;;;;11.20;81.19;101326.13;5076344;28;20440;-79
2024/02/14 02:49:22;;;;;;;0.20;0.20;;;;;;;11.30;80.56;101330.44;5082304;28;20032;-79
2024/02/14 02:51:48;;;;;;;0.30;0.30;;;;;;;11.35;81.05;101330.34;5078299;28;20021;-79
2024/02/14 02:54:14;;;;;;;0.52;0.52;;;;;;;11.27;80.89;101333.09;5083729;28;20039;-79
2024/02/14 02:56:41;;;;;;;1.85;0.80;;;;;;;11.43;80.10;101331.09;5080535;28;20043;-79
2024/02/14 02:59:08;;;;;;;0.10;0.10;;;;;;;11.32;80.80;101330.41;5084962;28;20384;-79
2024/02/14 03:01:37;;;;;;;0.22;0.22;;;;;;;11.43;80.42;101316.97;5085269;28;20415;-78
2024/02/14 03:04:03;;;;;;;0.10;0.10;;;;;;;11.39;80.18;101333.81;5082241;28;20075;-79
2024/02/14 03:06:30;;;;;;;0.75;0.75;;;;;;;11.46;80.22;101346.09;5086303;28;20445;-79
2024/02/14 03:08:57;;;;;;;0.30;0.30;;;;;;;11.45;80.52;101341.69;5084739;28;20028;-79
2024/02/14 03:11:25;;;;;;;0.10;0.10;;;;;;;11.56;80.49;101345.03;5078052;28;20020;-78
2024/02/14 03:13:52;;;;;;;0.20;0.20;;;;;;;11.53;81.04;101344.25;5077121;28;20111;-78
2024/02/14 03:16:18;;;;;;;0.20;0.20;;;;;;;11.55;80.53;101342.41;5087246;28;20066;-79
2024/02/14 03:18:44;;;;;;;0.57;0.57;;;;;;;11.60;80.71;101349.41;5084937;28;20487;-78
2024/02/14 03:21:11;;;;;;;0.13;0.13;;;;;;;11.67;80.70;101351.97;5084949;28;20039;-79
2024/02/14 03:23:39;;;;;;;0.22;0.22;;;;;;;11.62;80.40;101347.59;5080688;28;20031;-80
2024/02/14 03:26:07;;;;;;;0.10;0.10;;;;;;;11.64;80.14;101347.59;5087750;28;20035;-80
2024/02/14 03:28:34;;;;;;;0.30;0.30;;;;;;;11.72;80.67;101355.44;5083961;28;20115;-79
2024/02/14 03:31:00;;;;;;;0.15;0.15;;;;;;;11.69;80.04;101356.34;5088244;28;20050;-80
2024/02/14 03:33:28;;;;;;;0.30;0.30;;;;;;;11.67;80.20;101352.84;5090943;28;20410;-79
2024/02/14 03:35:55;;;;;;;0.32;0.32;;;;;;;11.63;80.35;101353.81;5083135;28;20028;-79
2024/02/14 03:38:29;;;;;;;0.10;0.10;;;;;;;11.79;80.84;101351.78;5085547;28;20040;-80
2024/02/14 03:40:55;;;;;;;0.20;0.20;;;;;;;11.70;80.70;101351.91;5093789;28;20028;-79
2024/02/14 03:43:23;;;;;;;0.10;0.10;;;;;;;11.76;80.71;101351.81;5086500;28;20059;-80
2024/02/14 03:45:50;;;;;;;0.10;0.10;;;;;;;11.78;80.79;101347.38;5084476;28;20090;-79
2024/02/14 03:48:16;;;;;;;0.45;0.45;;;;;;;11.74;80.45;101350.94;5086236;28;20039;-80
2024/02/14 03:50:43;;;;;;;0.20;0.20;;;;;;;11.82;80.27;101362.31;5079765;28;20033;-80
2024/02/14 03:53:14;;;;;;;0.10;0.10;;;;;;;11.76;80.46;101362.44;5085530;28;20032;-80
2024/02/14 03:55:41;;;;;;;0.55;0.55;;;;;;;11.81;80.23;101361.47;5084600;28;20044;-79
2024/02/14 03:58:08;;;;;;;0.95;0.93;;;;;;;11.94;80.23;101364.78;5088665;28;20109;-78
2024/02/14 04:00:35;;;;;;;0.10;0.10;;;;;;;12.01;79.57;101367.34;5092965;28;20023;-80
2024/02/14 04:03:02;;;;;;;0.20;0.20;;;;;;;12.00;79.48;101361.19;5085927;28;20025;-78
2024/02/14 04:05:29;;;;;;;0.85;0.85;;;;;;;11.99;79.61;101364.75;5088987;28;20033;-80
2024/02/14 04:07:55;;;;;;;0.35;0.35;;;;;;;11.94;79.67;101372.75;5084510;28;20074;-79
2024/02/14 04:10:22;;;;;;;0.10;0.10;;;;;;;11.87;80.06;101372.88;5090847;28;20032;-80
2024/02/14 04:12:49;;;;;;;0.40;0.40;;;;;;;12.03;79.49;101376.19;5088705;28;20053;-80
2024/02/14 04:15:15;;;;;;;1.33;1.27;;;;;;;11.98;80.01;101374.47;5087029;28;20031;-79
2024/02/14 04:17:41;;;;;;;0.20;0.20;;;;;;;11.92;79.55;101395.78;5087553;28;20086;-80
2024/02/14 04:20:08;;;;;;;2.08;0.73;;;;;;;11.93;80.04;101384.25;5087252;28;20088;-80
2024/02/14 04:22:34;;;;;;;0.20;0.20;;;;;;;12.01;79.22;101383.28;5087185;28;20415;-80
2024/02/14 04:25:00;;;;;;;0.30;0.30;;;;;;;12.11;78.96;101385.78;5085144;28;20039;-80
2024/02/14 04:27:28;;;;;;;0.10;0.10;;;;;;;12.09;79.27;101394.66;5087488;28;20114;-80
2024/02/14 04:29:54;;;;;;;0.30;0.30;;;;;;;12.04;79.72;101393.88;5087221;28;20096;-81
2024/02/14 04:32:20;;;;;;;0.10;0.10;;;;;;;12.07;79.31;101394.69;5087764;28;20386;-80
2024/02/14 04:34:47;;;;;;;0.55;0.55;;;;;;;11.97;79.49;101393.97;5084296;28;20032;-80
2024/02/14 04:37:13;;;;;;;0.63;0.63;;;;;;;12.06;79.27;101392.06;5086635;28;20085;-80
2024/02/14 04:39:40;;;;;;;0.10;0.10;;;;;;;12.07;80.05;101396.47;5083688;28;20028;-81
2024/02/14 04:42:06;;;;;;;0.25;0.25;;;;;;;12.06;79.21;101392.06;5085116;28;20039;-81
2024/02/14 04:44:34;;;;;;;0.80;0.57;;;;;;;12.08;79.83;101398.22;5083695;28;20115;-81
2024/02/14 04:47:01;;;;;;;0.10;0.10;;;;;;;12.08;79.83;101401.75;5089023;28;20052;-80
2024/02/14 04:49:29;;;;;;;0.10;0.10;;;;;;;12.02;79.61;101400.97;5088408;28;20034;-80
2024/02/14 04:51:55;;;;;;;0.10;0.10;;;;;;;12.16;79.47;101400.75;5089618;28;20028;-80
2024/02/14 04:54:22;;;;;;;0.10;0.10;;;;;;;12.07;79.51;101405.28;5066669;28;20040;-80
2024/02/14 04:56:48;;;;;;;1.25;1.17;;;;;;;12.07;79.71;101407.09;5084156;28;20032;-80
2024/02/14 04:59:14;;;;;;;0.30;0.30;;;;;;;12.18;79.20;101406.91;5091327;28;20479;-80
2024/02/14 05:01:40;;;;;;;0.20;0.20;;;;;;;12.08;79.93;101409.72;5084265;28;20523;-79
2024/02/14 05:04:07;;;;;;;0.13;0.13;;;;;;;12.11;79.97;101414.09;5084885;28;20035;-80
2024/02/14 05:06:33;;;;;;;0.20;0.20;;;;;;;12.14;80.14;101408.75;5090146;28;20032;-80
2024/02/14 05:09:00;;;;;;;0.55;0.30;;;;;;;12.21;79.32;101413.06;5091835;28;20070;-81
2024/02/14 05:11:26;;;;;;;0.68;0.68;;;;;;;12.21;79.74;101413.06;5083392;28;20047;-79
2024/02/14 05:13:52;;;;;;;0.20;0.20;;;;;;;12.19;79.58;101414.84;5085126;28;20024;-80
2024/02/14 05:16:19;;;;;;;0.40;0.40;;;;;;;12.13;80.56;101414.94;5083047;28;20017;-80
2024/02/14 05:18:46;;;;;;;0.20;0.20;;;;;;;12.07;80.34;101415.91;5086354;28;20024;-80
2024/02/14 05:21:12;;;;;;;0.15;0.15;;;;;;;12.10;80.28;101418.53;5089202;28;20024;-80
2024/02/14 05:23:39;;;;;;;0.55;0.55;;;;;;;12.12;80.14;101418.50;5082969;28;20546;-79
2024/02/14 05:26:05;;;;;;;0.10;0.10;;;;;;;12.15;80.31;101423.78;5085797;28;20044;-80
2024/02/14 05:28:32;;;;;;;0.57;0.32;;;;;;;12.14;80.12;101428.19;5080579;28;20504;-79
2024/02/14 05:31:00;;;;;;;1.25;0.85;;;;;;;12.23;79.83;101419.19;5090240;28;20034;-79
2024/02/14 05:33:29;;;;;;;0.20;0.20;;;;;;;12.14;80.20;101425.53;5086102;28;20490;-80
2024/02/14 05:35:55;;;;;;;0.20;0.20;;;;;;;12.27;80.23;101423.56;5087454;28;20115;-79
2024/02/14 05:38:21;;;;;;;0.20;0.20;;;;;;;12.21;80.15;101426.34;5088625;28;20047;-80
2024/02/14 05:40:48;;;;;;;0.25;0.25;;;;;;;12.22;80.35;101420.09;5086630;28;20028;-79
2024/02/14 05:43:15;;;;;;;0.10;0.10;;;;;;;12.34;80.01;101429.63;5086604;28;20034;-80
2024/02/14 05:45:42;;;;;;;0.10;0.10;;;;;;;12.28;79.84;101425.28;5088313;28;20295;-80
2024/02/14 05:48:08;;;;;;;0.10;0.10;;;;;;;12.29;80.51;101429.72;5084024;28;20071;-80
2024/02/14 05:50:35;;;;;;;0.47;0.47;;;;;;;12.28;80.02;101435.94;5084911;28;20039;-79
2024/02/14 05:53:02;;;;;;;1.23;0.68;;;;;;;12.28;80.27;101430.63;5088164;28;20032;-79
2024/02/14 05:55:28;;;;;;;0.17;0.17;;;;;;;12.24;80.44;101426.25;5085930;28;20028;-79
2024/02/14 05:57:54;;;;;;;1.27;0.68;;;;;;;12.32;80.43;101438.53;5085145;28;20031;-79
2024/02/14 06:00:21;;;;;;;0.28;0.28;;;;;;;12.29;80.04;101447.44;5084601;28;20032;-80
2024/02/14 06:02:48;;;;;;;0.82;0.82;;;;;;;12.25;80.23;101446.63;5088032;28;20028;-78
2024/02/14 06:05:14;;;;;;;0.47;0.40;;;;;;;12.22;79.92;101445.78;5084225;28;20021;-80
2024/02/14 06:07:41;;;;;;;0.10;0.10;;;;;;;12.31;79.52;101437.66;5081758;28;20025;-79
2024/02/14 06:10:08;;;;;;;0.45;0.45;;;;;;;12.20;80.21;101450.25;5086932;28;20322;-79
2024/02/14 06:12:35;;;;;;;0.60;0.60;;;;;;;12.22;80.09;101443.13;5084080;28;20024;-79
2024/02/14 06:15:02;;;;;;;0.55;0.55;;;;;;;12.26;80.35;101452.81;5084808;28;20025;-80
2024/02/14 06:17:28;;;;;;;0.55;0.55;;;;;;;12.21;80.93;101452.91;5081206;28;20491;-79
2024/02/14 06:19:55;;;;;;;0.63;0.63;;;;;;;12.10;81.45;101455.72;5081152;28;20060;-79
2024/02/14 06:22:21;;;;;;;0.20;0.20;;;;;;;12.27;80.11;101455.47;5082621;28;20505;-80
2024/02/14 06:24:49;;;;;;;0.13;0.13;;;;;;;12.26;80.68;101459.00;5077766;28;20028;-78
2024/02/14 06:27:15;;;;;;;0.10;0.10;;;;;;;12.21;80.90;101455.56;5082158;28;20440;-79
2024/02/14 06:29:43;;;;;;;0.98;0.90;;;;;;;12.20;81.08;101456.47;5088276;28;20036;-79
2024/02/14 06:32:12;;;;;;;0.10;0.10;;;;;;;12.32;80.48;101462.47;5087978;28;20020;-79
2024/02/14 06:34:39;;;;;;;0.15;0.15;;;;;;;12.22;80.27;101461.72;5083121;28;20031;-80
2024/02/14 06:37:05;;;;;;;0.50;0.50;;;;;;;12.29;80.39;101458.06;5105086;28;20020;-79
2024/02/14 06:39:31;;;;;;;0.20;0.20;;;;;;;12.34;80.33;101461.53;5103714;28;20043;-80
2024/02/14 06:41:57;;;;;;;0.70;0.70;;;;;;;12.28;80.49;101457.19;5091043;28;20049;-79
2024/02/14 06:44:24;;;;;;;0.45;0.45;;;;;;;12.28;80.25;101457.19;5085212;28;20032;-80
2024/02/14 06:46:50;;;;;;;0.75;0.75;;;;;;;12.34;79.88;101466.84;5086298;28;20512;-80
2024/02/14 06:49:17;;;;;;;0.30;0.30;;;;;;;12.35;80.19;101462.38;5095165;28;20513;-80
2024/02/14 06:51:43;;;;;;;0.68;0.68;;;;;;;12.36;80.42;101470.38;5086378;28;20418;-80
2024/02/14 06:54:09;;;;;;;0.13;0.13;;;;;;;12.35;80.76;101473.03;5090119;28;20120;-79
2024/02/14 06:56:36;;;;;;;0.52;0.52;;;;;;;12.41;80.42;101472.91;5082775;28;20039;-80
2024/02/14 06:59:03;;;;;;;0.20;0.20;;;;;;;12.41;80.34;101478.22;5087522;28;20028;-79
2024/02/14 07:01:30;;;;;;;0.25;0.25;;;;;;;12.38;80.19;101472.97;5092351;28;20032;-79
2024/02/14 07:03:56;;;;;;;1.80;0.77;;;;;;;12.36;80.11;101488.06;5092010;28;20055;-80
2024/02/14 07:06:22;;;;;;;0.55;0.55;;;;;;;12.42;79.99;101485.31;5087052;28;20046;-79
2024/02/14 07:08:49;;;;;;;0.20;0.20;;;;;;;12.40;80.41;101481.78;5092312;28;20399;-81
2024/02/14 07:11:16;;;;;;;0.68;0.68;;;;;;;12.42;80.42;101490.63;5089458;28;20031;-79
2024/02/14 07:13:42;;;;;;;0.32;0.32;;;;;;;12.44;80.55;101484.38;5083843;28;20602;-79
2024/02/14 07:16:09;;;;;;;0.15;0.15;;;;;;;12.46;80.31;101487.00;5088917;28;20032;-81
2024/02/14 07:18:35;;;;;;;0.20;0.20;;;;;;;12.49;79.92;101492.28;5085167;28;20032;-80
2024/02/14 07:21:01;;;;;;;1.08;1.08;;;;;;;12.39;80.12;101490.69;5090210;28;20080;-82
2024/02/14 07:23:28;;;;;;;0.40;0.40;;;;;;;12.36;80.25;101493.38;5100728;28;20052;-81
2024/02/14 07:25:54;;;;;;;0.20;0.20;;;;;;;12.39;80.57;101488.03;5088670;28;20032;-80
2024/02/14 07:28:20;;;;;;;0.10;0.10;;;;;;;12.33;80.36;101496.97;5088122;28;20024;-79
2024/02/14 07:30:46;;;;;;;0.10;0.10;;;;;;;12.35;80.51;101499.59;5080252;28;20036;-79
2024/02/14 07:33:13;;;;;;;0.47;0.47;;;;;;;12.34;80.37;101492.56;5088633;28;20344;-78
2024/02/14 07:35:39;;;;;;;0.10;0.10;;;;;;;12.39;80.24;101493.34;5086492;28;20035;-78
2024/02/14 07:38:05;;;;;;;1.00;0.45;;;;;;;12.43;80.14;101492.38;5088213;28;20023;-79
2024/02/14 07:40:33;;;;;;;0.40;0.40;;;;;;;12.39;80.58;101502.19;5091444;28;20043;-78
2024/02/14 07:42:59;;;;;;;0.25;0.25;;;;;;;12.46;80.27;101495.88;5095982;28;20035;-78
2024/02/14 07:45:26;;;;;;;0.20;0.20;;;;;;;12.44;80.06;101500.31;5094708;28;20062;-78
2024/02/14 07:47:52;;;;;;;0.60;0.60;;;;;;;12.46;80.04;101500.28;5100950;28;20389;-78
2024/02/14 07:50:18;;;;;;;0.17;0.17;;;;;;;12.30;80.51;101508.53;5098017;28;20136;-78
2024/02/14 07:52:47;;;;;;;0.20;0.20;;;;;;;12.44;80.57;101505.63;5094936;28;20047;-78
2024/02/14 07:55:13;;;;;;;0.10;0.10;;;;;;;12.54;80.23;101519.66;5108643;28;20051;-78
2024/02/14 07:57:41;;;;;;;0.47;0.47;;;;;;;12.51;80.63;101521.47;5115233;28;20012;-78
2024/02/14 08:00:08;;;;;;;0.45;0.45;;;;;;;12.56;80.48;101520.50;5110404;28;20028;-78
2024/02/14 08:02:34;;;;;;;0.25;0.25;;;;;;;12.54;80.73;101522.31;5108743;28;20042;-78
2024/02/14 08:05:01;;;;;;;0.22;0.22;;;;;;;12.58;80.21;101521.34;5106056;28;20086;-79
2024/02/14 08:07:27;;;;;;;0.20;0.20;;;;;;;12.52;80.56;101523.22;5111323;28;20031;-78
2024/02/14 08:09:54;;;;;;;0.43;0.43;;;;;;;12.52;80.65;101524.09;5099801;28;20035;-78
2024/02/14 08:12:20;;;;;;;0.38;0.38;;;;;;;12.56;79.99;101523.16;5097848;28;20022;-77
2024/02/14 08:14:47;;;;;;;0.10;0.10;;;;;;;12.43;81.03;101524.28;5079198;28;20034;-76
2024/02/14 08:17:14;;;;;;;0.10;0.10;;;;;;;12.49;80.92;101529.47;5094808;28;20505;-77
2024/02/14 08:19:40;;;;;;;0.65;0.55;;;;;;;12.54;81.06;101535.59;5091553;28;20109;-78
2024/02/14 08:22:06;;;;;;;0.45;0.45;;;;;;;12.46;80.71;101537.50;5094632;28;20016;-77
2024/02/14 08:24:33;;;;;;;0.80;0.55;;;;;;;12.54;81.01;101532.94;5095207;28;20035;-77
2024/02/14 08:26:59;;;;;;;0.30;0.30;;;;;;;12.57;80.73;101538.22;5092651;28;20028;-79
2024/02/14 08:29:25;;;;;;;0.30;0.30;;;;;;;12.56;80.37;101539.13;5092779;28;20020;-79
2024/02/14 08:31:53;;;;;;;0.17;0.17;;;;;;;12.56;80.79;101535.56;5093893;28;20024;-77
2024/02/14 08:34:19;;;;;;;0.20;0.20;;;;;;;12.59;80.92;101531.06;5093994;28;20035;-78
2024/02/14 08:36:45;;;;;;;0.45;0.45;;;;;;;12.66;80.42;101533.63;5093236;28;20031;-78
2024/02/14 08:39:11;;;;;;;0.10;0.10;;;;;;;12.66;80.39;101533.63;5093468;28;20032;-78
2024/02/14 08:41:38;;;;;;;0.10;0.10;;;;;;;12.63;80.07;101539.88;5093663;28;20035;-77
2024/02/14 08:44:05;;;;;;;0.17;0.17;;;;;;;12.64;80.23;101538.13;5092087;28;20020;-77
2024/02/14 08:46:32;;;;;;;0.22;0.22;;;;;;;12.68;80.42;101539.81;5091761;28;20038;-77
2024/02/14 08:49:01;;;;;;;0.13;0.13;;;;;;;12.59;80.56;101539.03;5094363;28;20027;-78
2024/02/14 08:51:28;;;;;;;0.20;0.20;;;;;;;12.68;80.88;101537.16;5095091;28;20115;-80
2024/02/14 08:53:57;;;;;;;0.10;0.10;;;;;;;12.66;80.90;101544.25;5099797;28;20020;-81
2024/02/14 08:56:23;;;;;;;0.30;0.30;;;;;;;12.65;80.71;101546.06;5099654;28;20657;-81
2024/02/14 08:58:50;;;;;;;0.57;0.57;;;;;;;12.71;80.57;101545.94;5099656;28;20020;-81
2024/02/14 09:01:16;;;;;;;0.20;0.20;;;;;;;12.71;80.27;101553.03;5094250;28;20028;-80
2024/02/14 09:03:47;;;;;;;0.20;0.20;;;;;;;12.62;81.14;101557.63;5076334;28;20032;-80
2024/02/14 09:06:14;;;;;;;0.10;0.10;;;;;;;12.71;80.57;101555.69;5091867;28;20028;-80
2024/02/14 09:08:41;;;;;;;0.40;0.40;;;;;;;12.81;80.15;101554.63;5096853;28;20031;-79
2024/02/14 09:11:07;;;;;;;0.10;0.10;;;;;;;12.83;80.66;101555.47;5109158;28;20559;-78
2024/02/14 09:13:34;;;;;;;0.43;0.43;;;;;;;12.86;80.58;101551.88;5109001;28;20028;-81
2024/02/14 09:16:00;;;;;;;0.15;0.15;;;;;;;12.89;80.55;101549.19;5089382;28;20024;-80
2024/02/14 09:18:27;;;;;;;0.10;0.10;;;;;;;12.91;80.07;101552.66;5110692;28;20031;-80
2024/02/14 09:20:54;;;;;;;1.13;0.85;;;;;;;12.92;80.21;101557.09;5108527;28;20140;-81
2024/02/14 09:23:22;;;;;;;0.10;0.10;;;;;;;13.00;80.41;101557.84;5112394;28;20019;-80
2024/02/14 09:25:48;;;;;;;0.82;0.82;;;;;;;12.87;80.83;101546.56;5105604;28;20016;-80
2024/02/14 09:28:16;;;;;;;0.10;0.10;;;;;;;13.01;80.72;101553.38;5109959;28;20030;-78
2024/02/14 09:30:43;;;;;;;0.15;0.15;;;;;;;12.93;80.33;101557.09;5107158;28;20031;-79
2024/02/14 09:33:09;;;;;;;0.10;0.10;;;;;;;13.01;80.91;101558.69;5117111;28;20079;-78
2024/02/14 09:35:37;;;;;;;0.73;0.73;;;;;;;13.02;80.51;101556.03;5105709;28;20031;-79
2024/02/14 09:38:04;;;;;;;3.67;1.75;;;;;;;13.15;80.39;101558.47;5111305;28;20031;-79
2024/02/14 09:40:30;;;;;;;0.20;0.20;;;;;;;13.04;80.78;101559.53;5106003;28;20381;-79
2024/02/14 09:43:01;;;;;;;0.25;0.25;;;;;;;13.04;80.49;101566.63;5105925;28;20058;-78
2024/02/14 09:45:28;;;;;;;0.17;0.17;;;;;;;13.06;80.76;101567.47;5100951;28;20036;-78
2024/02/14 09:47:55;;;;;;;0.25;0.25;;;;;;;12.98;80.86;101561.44;5104514;28;20031;-80
2024/02/14 09:50:21;;;;;;;0.10;0.10;;;;;;;13.15;80.81;101567.31;5102466;28;20023;-80
2024/02/14 09:52:49;;;;;;;0.10;0.10;;;;;;;13.17;80.52;101572.59;5107579;28;20037;-80
2024/02/14 09:55:16;;;;;;;2.40;0.75;;;;;;;13.20;80.55;101568.09;5094470;28;20031;-80
2024/02/14 09:57:44;;;;;;;0.10;0.10;;;;;;;13.24;80.35;101567.13;5088147;28;20042;-81
2024/02/14 10:00:12;;;;;;;0.10;0.10;;;;;;;13.27;80.20;101567.06;5086501;28;20044;-79
2024/02/14 10:02:38;;;;;;;0.10;0.10;;;;;;;13.27;79.89;101571.50;5084612;28;20048;-80
2024/02/14 10:05:05;;;;;;;0.35;0.35;;;;;;;13.27;80.43;101567.06;5089402;28;20479;-81
2024/02/14 10:07:41;;;;;;;0.10;0.10;;;;;;;13.21;80.60;101567.19;5081514;28;20411;-80
2024/02/14 10:10:07;;;;;;;0.73;0.73;;;;;;;13.20;81.02;101565.44;5082439;28;20584;-79
2024/02/14 10:12:33;;;;;;;0.45;0.45;;;;;;;13.18;80.78;101575.22;5092911;28;20050;-80
2024/02/14 10:15:01;;;;;;;0.10;0.10;;;;;;;13.25;80.59;101568.00;5087635;28;20031;-80
2024/02/14 10:17:28;;;;;;;0.20;0.20;;;;;;;13.23;80.82;101576.03;5088710;28;20035;-79
2024/02/14 10:19:58;;;;;;;0.10;0.10;;;;;;;13.30;80.85;101575.91;5086992;28;20099;-79
2024/02/14 10:22:25;;;;;;;0.22;0.22;;;;;;;13.29;80.95;101579.47;5092894;28;20034;-79
2024/02/14 10:24:51;;;;;;;0.20;0.20;;;;;;;13.26;80.68;101581.28;5093172;28;20024;-80
2024/02/14 10:27:18;;;;;;;0.10;0.10;;;;;;;13.32;80.80;101587.38;5089826;28;20053;-78
2024/02/14 10:29:44;;;;;;;0.20;0.20;;;;;;;13.35;80.59;101585.53;5095153;28;20032;-79
2024/02/14 10:32:14;;;;;;;1.10;0.68;;;;;;;13.43;80.72;101566.78;5083909;28;20082;-79
2024/02/14 10:34:43;;;;;;;0.08;0.08;;;;;;;13.45;80.63;101580.94;5092725;28;20574;-79
2024/02/14 10:37:10;;;;;;;0.22;0.22;;;;;;;13.46;80.74;101571.16;5093146;28;20089;-79
2024/02/14 10:39:38;;;;;;;0.10;0.10;;;;;;;13.43;80.72;101573.00;5088988;28;20039;-80
2024/02/14 10:42:04;;;;;;;0.10;0.10;;;;;;;13.58;80.46;101570.91;5094181;28;20024;-79
2024/02/14 10:44:30;;;;;;;0.80;0.80;;;;;;;13.58;80.44;101569.16;5088671;28;20043;-79
2024/02/14 10:47:02;;;;;;;0.20;0.20;;;;;;;13.68;80.35;101568.94;5094789;28;20498;-79
2024/02/14 10:49:30;;;;;;;0.20;0.20;;;;;;;13.69;80.09;101568.03;5094143;28;20024;-78
2024/02/14 10:52:02;;;;;;;0.13;0.13;;;;;;;13.56;80.45;101568.28;5093291;28;20517;-78
2024/02/14 10:54:29;;;;;;;0.22;0.22;;;;;;;13.56;80.30;101573.63;5093998;28;20030;-78
2024/02/14 10:57:04;;;;;;;0.17;0.17;;;;;;;13.46;80.81;101572.06;5094027;28;20024;-79
2024/02/14 10:59:31;;;;;;;0.10;0.10;;;;;;;13.45;80.57;101564.13;5092228;28;20574;-79
2024/02/14 11:01:58;;;;;;;0.25;0.25;;;;;;;13.52;80.88;101569.28;5087024;28;20040;-80
2024/02/14 11:04:24;;;;;;;0.10;0.10;;;;;;;13.55;80.40;101565.66;5090638;28;20089;-79
2024/02/14 11:06:56;;;;;;;1.00;0.73;;;;;;;13.62;80.68;101571.72;5089078;28;20128;-81
2024/02/14 11:09:31;;;;;;;;;;;;;;;13.75;80.06;101565.25;5091161;28;20054;-81
2024/02/14 11:12:02;;;;;;;0.10;0.10;;;;;;;13.65;80.35;101561.03;5091260;28;20371;-80
2024/02/14 11:14:32;;;;;;;0.10;0.10;;;;;;;13.69;80.48;101558.25;5080023;28;20170;-79
2024/02/14 11:17:00;;;;;;;0.55;0.55;;;;;;;13.68;80.64;101558.28;5083992;28;20067;-81
2024/02/14 11:19:36;;;;;;;0.20;0.20;;;;;;;13.70;80.66;101560.00;5089250;28;20039;-80
2024/02/14 11:22:14;;;;;;;0.65;0.65;;;;;;;13.80;80.43;101566.00;5064898;28;20300;-79